Guanarteme — ECFV — position and weather

sailwx.info

Track history (hours):
 
Tides and Currents Weather Stations Pressure Air Temp Water Temp Dewpoint Dewpoint Depression Visibility Wind Speed Wind Dir Waves Ship Positions

Guanarteme

Last reported at 2017-Nov-24 07:30 UTC. Time now 2017-Nov-24 07:39 UTC.
Position N 37°56' W 008°52'.

Length 96 m; draft 5.4 m.

Type: Ship. MMSI: 224365000.

Date/timePositionNaut miles runAvg speedWind from/ knotsBaromVisibWave heightAir tempDewpointWater temp
2017-Nov-24 07:30N 37°56' W 008°52'1 2.6
2017-Nov-24 07:00N 37°57' W 008°53'0 0.0
2017-Nov-24 06:30N 37°57' W 008°53'0 0.0
2017-Nov-24 06:00N 37°57' W 008°53'0 0.0
2017-Nov-24 05:30N 37°57' W 008°53'0 0.0
2017-Nov-24 05:00N 37°57' W 008°53'0 0.0
2017-Nov-24 04:30N 37°57' W 008°53'0 0.0
2017-Nov-24 04:00N 37°57' W 008°53'0 0.0
2017-Nov-24 03:30N 37°57' W 008°53'0 0.0
2017-Nov-24 03:00N 37°57' W 008°53'0 0.0
2017-Nov-24 02:30N 37°57' W 008°53'0 0.0
2017-Nov-24 02:00N 37°57' W 008°53'0 0.0
2017-Nov-24 01:30N 37°57' W 008°53'0 0.0
2017-Nov-24 01:00N 37°57' W 008°53'0 0.0
2017-Nov-24 00:30N 37°57' W 008°53'0 0.0
2017-Nov-24 00:00N 37°57' W 008°53'0 0.0
2017-Nov-23 23:30N 37°57' W 008°53'0 0.1
2017-Nov-23 23:01N 37°57' W 008°53'1 2.5
2017-Nov-23 22:31N 37°56' W 008°54'1 1.9
2017-Nov-23 22:01N 37°55' W 008°55'1 2.2
2017-Nov-23 21:31N 37°55' W 008°54'1 1.9
2017-Nov-23 21:01N 37°55' W 008°54'1 2.8
2017-Nov-23 20:30N 37°56' W 008°56'510.6
2017-Nov-23 20:01N 38°01' W 008°60'611.0
2017-Nov-23 19:31N 38°05' W 009°03'510.5
2017-Nov-23 19:01N 38°10' W 009°07'510.4
2017-Nov-23 18:30N 38°14' W 009°10'510.2
2017-Nov-23 18:01N 38°18' W 009°14'5 9.7
2017-Nov-23 17:31N 38°22' W 009°17'5 9.3
2017-Nov-23 17:00N 38°27' W 009°19'5 9.3
2017-Nov-23 16:30N 38°31' W 009°21'5 9.5
2017-Nov-23 16:00N 38°36' W 009°23'4 8.8
2017-Nov-23 15:31N 38°39' W 009°20'4 8.5
2017-Nov-23 15:00N 38°41' W 009°15'2 0.5
2017-Nov-23 11:09N 38°41' W 009°13'0 0.0
2017-Nov-23 10:48N 38°41' W 009°13'0 0.0
2017-Nov-23 10:30N 38°41' W 009°13'0 0.0
2017-Nov-23 09:48N 38°41' W 009°13'0 0.0
2017-Nov-23 08:30N 38°41' W 009°13'0 0.0
2017-Nov-23 06:54N 38°41' W 009°13'0 0.0
2017-Nov-23 06:24N 38°41' W 009°13'0 0.0
2017-Nov-23 05:57N 38°41' W 009°13'0 0.1
2017-Nov-23 05:30N 38°41' W 009°13'1 1.7
2017-Nov-23 05:00N 38°41' W 009°14'5 9.6
2017-Nov-23 04:30N 38°39' W 009°19'5 9.7
2017-Nov-23 04:01N 38°35' W 009°22'510.6
2017-Nov-23 03:31N 38°30' W 009°20'3 6.7
2017-Nov-23 03:00N 38°27' W 009°19'4 8.7
2017-Nov-23 02:31N 38°31' W 009°21'510.6
2017-Nov-23 02:01N 38°26' W 009°18'510.4
2017-Nov-23 01:30N 38°21' W 009°16'510.5
2017-Nov-23 01:01N 38°17' W 009°11'510.4
2017-Nov-23 00:30N 38°13' W 009°08'510.6
2017-Nov-23 00:00N 38°08' W 009°04'510.7
2017-Nov-22 23:30N 38°04' W 009°00'510.9
2017-Nov-22 23:00N 37°59' W 008°57'4 8.6
2017-Nov-22 22:30N 37°56' W 008°53'1 1.9
2017-Nov-22 21:58N 37°57' W 008°53'0 0.0
2017-Nov-22 21:28N 37°57' W 008°53'0 0.0
2017-Nov-22 20:58N 37°57' W 008°53'0 0.0
2017-Nov-22 20:28N 37°57' W 008°53'0 0.0
2017-Nov-22 19:52N 37°57' W 008°53'0 0.0
2017-Nov-22 19:19N 37°57' W 008°53'  
2017-Nov-20 00:30N 37°56' W 008°51'0 0.1
2017-Nov-20 00:00N 37°56' W 008°51'1 1.5
2017-Nov-19 23:30N 37°55' W 008°52'2 4.1
2017-Nov-19 22:59N 37°57' W 008°53'0 0.0
2017-Nov-19 22:29N 37°57' W 008°53'0 0.0
2017-Nov-19 21:59N 37°57' W 008°53'0 0.0
2017-Nov-19 21:29N 37°57' W 008°53'0 0.0
2017-Nov-19 20:59N 37°57' W 008°53'0 0.0
2017-Nov-19 20:29N 37°57' W 008°53'0 0.0
2017-Nov-19 19:59N 37°57' W 008°53'0 0.0
2017-Nov-19 19:29N 37°57' W 008°53'0 0.0
2017-Nov-19 18:59N 37°57' W 008°53'0 0.0
2017-Nov-19 18:29N 37°57' W 008°53'0 0.0
2017-Nov-19 17:59N 37°57' W 008°53'0 0.0
2017-Nov-19 17:29N 37°57' W 008°53'0 0.0
2017-Nov-19 16:59N 37°57' W 008°53'0 0.0
2017-Nov-19 16:29N 37°57' W 008°53'0 0.0
2017-Nov-19 15:59N 37°57' W 008°53'0 0.0
2017-Nov-19 15:29N 37°57' W 008°53'0 0.0
2017-Nov-19 14:59N 37°57' W 008°53'0 0.0
2017-Nov-19 14:29N 37°57' W 008°53'0 0.0
2017-Nov-19 13:59N 37°57' W 008°53'0 0.9
2017-Nov-19 13:30N 37°57' W 008°53'2 3.6
2017-Nov-19 12:59N 37°55' W 008°52'0 0.0
2017-Nov-19 12:29N 37°55' W 008°52'0 0.1
2017-Nov-19 11:59N 37°55' W 008°52'0 0.1
2017-Nov-19 11:29N 37°55' W 008°52'0 0.0
2017-Nov-19 10:59N 37°55' W 008°52'0 0.0
2017-Nov-19 10:29N 37°55' W 008°52'0 0.1
2017-Nov-19 09:59N 37°55' W 008°52'0 0.0
2017-Nov-19 09:29N 37°55' W 008°52'0 0.0
2017-Nov-19 08:59N 37°55' W 008°52'0 0.0
2017-Nov-19 08:29N 37°55' W 008°52'0 0.0
2017-Nov-19 07:58N 37°55' W 008°52'0 0.0
2017-Nov-19 07:28N 37°55' W 008°52'0 0.0
2017-Nov-19 06:55N 37°55' W 008°52'0 0.0
2017-Nov-19 06:28N 37°55' W 008°52'0 0.0
2017-Nov-19 05:58N 37°55' W 008°52'0 0.0
2017-Nov-19 05:28N 37°55' W 008°52'0 0.1
2017-Nov-19 04:58N 37°55' W 008°52'0 0.0
2017-Nov-19 04:28N 37°55' W 008°52'0 0.0
2017-Nov-19 03:58N 37°55' W 008°52'0 0.0
2017-Nov-19 03:28N 37°55' W 008°52'0 0.0
2017-Nov-19 02:58N 37°55' W 008°52'0 0.0
2017-Nov-19 02:28N 37°55' W 008°52'0 0.1
2017-Nov-19 01:58N 37°55' W 008°52'0 0.0
2017-Nov-19 01:22N 37°55' W 008°52'0 0.0
2017-Nov-19 00:58N 37°55' W 008°52'0 0.0
2017-Nov-19 00:28N 37°55' W 008°52'0 0.0
2017-Nov-18 23:58N 37°55' W 008°52'0 0.0
2017-Nov-18 23:28N 37°55' W 008°52'0 0.0
2017-Nov-18 22:58N 37°55' W 008°52'0 0.0
2017-Nov-18 22:28N 37°55' W 008°52'0 0.0
2017-Nov-18 21:58N 37°55' W 008°52'0 0.0
2017-Nov-18 21:28N 37°55' W 008°52'0 0.1
2017-Nov-18 20:58N 37°55' W 008°52'0 0.1
2017-Nov-18 20:28N 37°55' W 008°52'0 0.0
2017-Nov-18 19:55N 37°55' W 008°52'0 0.0
2017-Nov-18 19:28N 37°55' W 008°52'0 0.0
2017-Nov-18 18:58N 37°55' W 008°52'0 0.0
2017-Nov-18 18:28N 37°55' W 008°52'0 0.1
2017-Nov-18 17:58N 37°55' W 008°52'0 0.0
2017-Nov-18 17:28N 37°55' W 008°52'0 0.0
2017-Nov-18 16:58N 37°55' W 008°52'0 0.0
2017-Nov-18 16:28N 37°55' W 008°52'1 3.0
2017-Nov-18 16:00N 37°56' W 008°51'0 0.0
2017-Nov-18 15:30N 37°56' W 008°51'0 0.0
2017-Nov-18 15:00N 37°56' W 008°51'0 0.0
2017-Nov-18 14:30N 37°56' W 008°51'0 0.0
2017-Nov-18 14:00N 37°56' W 008°51'0 0.0
2017-Nov-18 13:30N 37°56' W 008°51'0 0.0
2017-Nov-18 13:00N 37°56' W 008°51'0 0.0
2017-Nov-18 12:30N 37°56' W 008°51'0 0.0
2017-Nov-18 12:00N 37°56' W 008°51'0 0.0
2017-Nov-18 11:30N 37°56' W 008°51'0 0.0
2017-Nov-18 11:00N 37°56' W 008°51'0 0.0
2017-Nov-18 10:30N 37°56' W 008°51'0 0.0
2017-Nov-18 10:00N 37°56' W 008°51'0 0.0
2017-Nov-18 09:24N 37°56' W 008°51'0 0.0
2017-Nov-18 09:00N 37°56' W 008°51'0 0.0
2017-Nov-18 08:30N 37°56' W 008°51'0 0.0
2017-Nov-18 08:00N 37°56' W 008°51'0 0.0
2017-Nov-18 07:30N 37°56' W 008°51'0 0.0
2017-Nov-18 07:00N 37°56' W 008°51'0 0.0
2017-Nov-18 06:30N 37°56' W 008°51'0 0.0
2017-Nov-18 06:00N 37°56' W 008°51'0 0.0
2017-Nov-18 05:30N 37°56' W 008°51'0 0.0
2017-Nov-18 05:00N 37°56' W 008°51'0 0.0
2017-Nov-18 04:30N 37°56' W 008°51'0 0.0
2017-Nov-18 04:00N 37°56' W 008°51'0 0.0
2017-Nov-18 03:30N 37°56' W 008°51'0 0.0
2017-Nov-18 03:00N 37°56' W 008°51'0 0.0
2017-Nov-18 02:30N 37°56' W 008°51'0 0.0
2017-Nov-18 02:00N 37°56' W 008°51'0 0.0
2017-Nov-18 01:30N 37°56' W 008°51'0 0.0
2017-Nov-18 01:00N 37°56' W 008°51'0 0.0
2017-Nov-18 00:30N 37°56' W 008°51'0 0.0
2017-Nov-18 00:00N 37°56' W 008°51'0 0.0
2017-Nov-17 23:30N 37°56' W 008°51'0 0.0
2017-Nov-17 23:00N 37°56' W 008°51'0 0.0
2017-Nov-17 22:30N 37°56' W 008°51'0 0.0
2017-Nov-17 22:00N 37°56' W 008°51'0 0.0
2017-Nov-17 21:30N 37°56' W 008°51'0 0.0
2017-Nov-17 21:00N 37°56' W 008°51'0 0.0
2017-Nov-17 20:30N 37°56' W 008°51'0 0.0
2017-Nov-17 20:00N 37°56' W 008°51'0 0.0
2017-Nov-17 19:30N 37°56' W 008°51'0 0.0
2017-Nov-17 19:00N 37°56' W 008°51'0 0.0
2017-Nov-17 18:30N 37°56' W 008°51'0 0.0
2017-Nov-17 18:00N 37°56' W 008°51'0 0.0
2017-Nov-17 17:30N 37°56' W 008°51'0 0.0
2017-Nov-17 17:00N 37°56' W 008°51'0 0.0
2017-Nov-17 16:30N 37°56' W 008°51'0 0.0
2017-Nov-17 16:00N 37°56' W 008°51'0 0.0
2017-Nov-17 15:30N 37°56' W 008°51'0 0.0
2017-Nov-17 15:00N 37°56' W 008°51'0 0.0
2017-Nov-17 14:30N 37°56' W 008°51'0 0.0
2017-Nov-17 14:00N 37°56' W 008°51'0 0.0
2017-Nov-17 13:30N 37°56' W 008°51'0 0.0
2017-Nov-17 13:00N 37°56' W 008°51'0 0.0
2017-Nov-17 12:30N 37°56' W 008°51'0 0.0
2017-Nov-17 12:00N 37°56' W 008°51'0 0.0
2017-Nov-17 11:30N 37°56' W 008°51'0 0.0
2017-Nov-17 11:00N 37°56' W 008°51'0 0.0
2017-Nov-17 10:30N 37°56' W 008°51'0 0.0
2017-Nov-17 10:00N 37°56' W 008°51'0 0.0
2017-Nov-17 09:30N 37°56' W 008°51'0 0.0
2017-Nov-17 09:00N 37°56' W 008°51'0 0.0
2017-Nov-17 08:30N 37°56' W 008°51'0 0.0
2017-Nov-17 08:00N 37°56' W 008°51'0 0.0
2017-Nov-17 07:30N 37°56' W 008°51'0 0.0
2017-Nov-17 07:00N 37°56' W 008°51'0 0.0
2017-Nov-17 06:30N 37°56' W 008°51'0 0.0
2017-Nov-17 06:00N 37°56' W 008°51'0 0.0
2017-Nov-17 05:30N 37°56' W 008°51'0 0.0
2017-Nov-17 05:00N 37°56' W 008°51'0 0.0
2017-Nov-17 04:30N 37°56' W 008°51'0 0.0
2017-Nov-17 04:00N 37°56' W 008°51'0 0.0
2017-Nov-17 03:30N 37°56' W 008°51'0 0.0
2017-Nov-17 03:00N 37°56' W 008°51'0 0.0
2017-Nov-17 02:30N 37°56' W 008°51'0 0.0
2017-Nov-17 02:00N 37°56' W 008°51'0 0.0
2017-Nov-17 01:30N 37°56' W 008°51'0 0.0
2017-Nov-17 01:00N 37°56' W 008°51'0 0.0
2017-Nov-17 00:30N 37°56' W 008°51'0 0.0
2017-Nov-17 00:00N 37°56' W 008°51'0 0.0
2017-Nov-16 23:30N 37°56' W 008°51'0 0.0
2017-Nov-16 23:00N 37°56' W 008°51'0 0.0
2017-Nov-16 22:30N 37°56' W 008°51'0 0.0
2017-Nov-16 22:00N 37°56' W 008°51'0 0.0
2017-Nov-16 21:30N 37°56' W 008°51'0 0.0
2017-Nov-16 21:00N 37°56' W 008°51'0 0.0
2017-Nov-16 20:30N 37°56' W 008°51'0 0.0
2017-Nov-16 20:00N 37°56' W 008°51'0 0.0
2017-Nov-16 19:30N 37°56' W 008°51'0 0.0
2017-Nov-16 19:00N 37°56' W 008°51'0 0.0
2017-Nov-16 18:30N 37°56' W 008°51'0 0.0
2017-Nov-16 18:00N 37°56' W 008°51'0 0.0
2017-Nov-16 17:30N 37°56' W 008°51'0 0.0
2017-Nov-16 17:00N 37°56' W 008°51'1 2.4
2017-Nov-16 16:31N 37°55' W 008°52'0 0.4
2017-Nov-16 15:55N 37°55' W 008°51'0 0.0
2017-Nov-16 15:28N 37°55' W 008°51'0 0.0
2017-Nov-16 14:55N 37°55' W 008°51'0 0.0
2017-Nov-16 14:25N 37°55' W 008°51'0 0.0
2017-Nov-16 13:58N 37°55' W 008°51'0 0.0
2017-Nov-16 13:28N 37°55' W 008°51'0 0.0
2017-Nov-16 12:58N 37°55' W 008°51'0 0.0
2017-Nov-16 12:28N 37°55' W 008°51'0 0.0
2017-Nov-16 11:55N 37°55' W 008°51'0 0.0
2017-Nov-16 11:28N 37°55' W 008°51'0 0.1
2017-Nov-16 10:58N 37°55' W 008°51'0 0.1
2017-Nov-16 10:31N 37°55' W 008°51'0 0.0
2017-Nov-16 09:58N 37°55' W 008°51'0 0.0
2017-Nov-16 09:28N 37°55' W 008°51'0 0.0
2017-Nov-16 08:58N 37°55' W 008°51'0 0.0
2017-Nov-16 08:28N 37°55' W 008°52'0 0.0
2017-Nov-16 07:58N 37°55' W 008°51'0 0.0
2017-Nov-16 07:28N 37°55' W 008°51'0 0.0
2017-Nov-16 06:58N 37°55' W 008°51'0 0.0
2017-Nov-16 06:28N 37°55' W 008°51'0 0.0
2017-Nov-16 05:58N 37°55' W 008°51'0 0.0
2017-Nov-16 05:28N 37°55' W 008°51'0 0.0
2017-Nov-16 04:58N 37°55' W 008°51'0 0.0
2017-Nov-16 04:25N 37°55' W 008°51'0 0.0
2017-Nov-16 03:55N 37°55' W 008°51'0 0.0
2017-Nov-16 03:28N 37°55' W 008°51'0 0.0
2017-Nov-16 02:58N 37°55' W 008°51'0 0.0
2017-Nov-16 02:28N 37°55' W 008°51'0 0.1
2017-Nov-16 01:58N 37°55' W 008°51'0 0.0
2017-Nov-16 01:28N 37°55' W 008°51'0 0.0
2017-Nov-16 00:58N 37°55' W 008°51'2 3.4
2017-Nov-16 00:31N 37°56' W 008°52'1 1.4
2017-Nov-16 00:00N 37°56' W 008°51'0 0.0
2017-Nov-15 23:30N 37°56' W 008°51'0 0.0
2017-Nov-15 23:00N 37°56' W 008°51'0 0.0
2017-Nov-15 22:30N 37°56' W 008°51'0 0.0
2017-Nov-15 22:00N 37°56' W 008°51'0 0.0
2017-Nov-15 21:30N 37°56' W 008°51'0 0.0
2017-Nov-15 21:00N 37°56' W 008°51'0 0.0
2017-Nov-15 20:30N 37°56' W 008°51'0 0.0
2017-Nov-15 20:00N 37°56' W 008°51'0 0.0
2017-Nov-15 19:30N 37°56' W 008°51'0 0.9
2017-Nov-15 19:00N 37°56' W 008°52'1 2.6
2017-Nov-15 18:28N 37°55' W 008°51'0 0.1
2017-Nov-15 17:58N 37°55' W 008°51'0 0.0
2017-Nov-15 17:28N 37°55' W 008°51'0 0.0
2017-Nov-15 16:58N 37°55' W 008°51'0 0.1
2017-Nov-15 16:28N 37°55' W 008°51'1 1.7
2017-Nov-15 16:00N 37°56' W 008°52'2 3.2
2017-Nov-15 15:28N 37°57' W 008°53'0 0.0
2017-Nov-15 14:58N 37°57' W 008°53'0 0.0
2017-Nov-15 14:28N 37°57' W 008°53'0 0.0
2017-Nov-15 13:58N 37°57' W 008°53'0 0.0
2017-Nov-15 13:28N 37°57' W 008°53'0 0.0
2017-Nov-15 12:58N 37°57' W 008°53'0 0.0
2017-Nov-15 12:28N 37°57' W 008°53'0 0.0
2017-Nov-15 11:58N 37°57' W 008°53'0 0.0
2017-Nov-15 11:28N 37°57' W 008°53'0 0.0
2017-Nov-15 10:58N 37°57' W 008°53'0 0.0
2017-Nov-15 10:28N 37°57' W 008°53'0 0.0
2017-Nov-15 09:58N 37°57' W 008°53'0 0.0
2017-Nov-15 09:28N 37°57' W 008°53'0 0.0
2017-Nov-15 08:58N 37°57' W 008°53'0 0.1
2017-Nov-15 08:31N 37°57' W 008°53'1 2.9
2017-Nov-15 08:00N 37°56' W 008°52'0 0.0
2017-Nov-15 07:30N 37°56' W 008°52'0 0.0
2017-Nov-15 07:00N 37°56' W 008°52'0 0.0
2017-Nov-15 06:30N 37°56' W 008°52'0 0.0
2017-Nov-15 06:00N 37°56' W 008°52'0 0.0
2017-Nov-15 05:30N 37°56' W 008°52'0 0.0
2017-Nov-15 05:00N 37°56' W 008°52'0 0.0
2017-Nov-15 04:30N 37°56' W 008°52'0 0.0
2017-Nov-15 03:57N 37°56' W 008°52'0 0.0
2017-Nov-15 03:30N 37°56' W 008°52'0 0.0
2017-Nov-15 03:00N 37°56' W 008°52'0 0.0
2017-Nov-15 02:30N 37°56' W 008°52'0 0.0
2017-Nov-15 02:00N 37°56' W 008°52'0 0.0
2017-Nov-15 01:30N 37°56' W 008°52'0 0.0
2017-Nov-15 01:00N 37°56' W 008°52'0 0.0
2017-Nov-15 00:30N 37°56' W 008°52'0 0.0
2017-Nov-15 00:00N 37°56' W 008°52'0 0.0
2017-Nov-14 23:30N 37°56' W 008°52'0 0.0
2017-Nov-14 23:00N 37°56' W 008°52'0 0.0
2017-Nov-14 22:30N 37°56' W 008°52'0 0.0
2017-Nov-14 22:00N 37°56' W 008°52'0 0.0
2017-Nov-14 21:30N 37°56' W 008°52'0 0.0
2017-Nov-14 21:00N 37°56' W 008°52'0 0.0
2017-Nov-14 20:30N 37°56' W 008°52'0 0.0
2017-Nov-14 20:00N 37°56' W 008°52'0 0.0
2017-Nov-14 19:30N 37°56' W 008°52'0 0.0
2017-Nov-14 19:00N 37°56' W 008°52'0 0.0
2017-Nov-14 18:30N 37°56' W 008°52'0 0.0
2017-Nov-14 18:00N 37°56' W 008°52'0 0.0
2017-Nov-14 17:30N 37°56' W 008°52'0 0.0
2017-Nov-14 17:00N 37°56' W 008°52'0 0.0
2017-Nov-14 16:30N 37°56' W 008°52'0 0.0
2017-Nov-14 16:00N 37°56' W 008°52'0 0.0
2017-Nov-14 15:30N 37°56' W 008°52'0 0.0
2017-Nov-14 15:00N 37°56' W 008°52'0 0.0
2017-Nov-14 14:30N 37°56' W 008°52'0 0.0
2017-Nov-14 14:00N 37°56' W 008°52'0 0.0
2017-Nov-14 13:30N 37°56' W 008°52'0 0.5
2017-Nov-14 13:00N 37°56' W 008°52'1 2.2
2017-Nov-14 12:30N 37°56' W 008°51'0 0.0
2017-Nov-14 11:58N 37°56' W 008°51'0 0.0
2017-Nov-14 11:28N 37°56' W 008°51'0 0.0
2017-Nov-14 10:58N 37°56' W 008°51'0 0.0
2017-Nov-14 10:28N 37°56' W 008°51'0 0.0
2017-Nov-14 09:58N 37°56' W 008°51'0 0.0
2017-Nov-14 09:28N 37°56' W 008°51'0 0.0
2017-Nov-14 08:58N 37°56' W 008°51'0 0.0
2017-Nov-14 08:28N 37°56' W 008°51'0 0.0
2017-Nov-14 07:58N 37°56' W 008°51'  
Track history (hours):
 
Tides and Currents Weather Stations Pressure Air Temp Water Temp Dewpoint Dewpoint Depression Visibility Wind Speed Wind Dir Waves Ship Positions

Guanarteme

Last reported at 2017-Nov-24 07:30 UTC. Time now 2017-Nov-24 07:39 UTC.
Position N 37°56' W 008°52'.

Length 96 m; draft 5.4 m.

Type: Ship. MMSI: 224365000.

Date/timePositionNaut miles runAvg speedWind from/ knotsBaromVisibWave heightAir tempDewpointWater temp
2017-Nov-24 07:30N 37°56' W 008°52'1 2.6
2017-Nov-24 07:00N 37°57' W 008°53'0 0.0
2017-Nov-24 06:30N 37°57' W 008°53'0 0.0
2017-Nov-24 06:00N 37°57' W 008°53'0 0.0
2017-Nov-24 05:30N 37°57' W 008°53'0 0.0
2017-Nov-24 05:00N 37°57' W 008°53'0 0.0
2017-Nov-24 04:30N 37°57' W 008°53'0 0.0
2017-Nov-24 04:00N 37°57' W 008°53'0 0.0
2017-Nov-24 03:30N 37°57' W 008°53'0 0.0
2017-Nov-24 03:00N 37°57' W 008°53'0 0.0
2017-Nov-24 02:30N 37°57' W 008°53'0 0.0
2017-Nov-24 02:00N 37°57' W 008°53'0 0.0
2017-Nov-24 01:30N 37°57' W 008°53'0 0.0
2017-Nov-24 01:00N 37°57' W 008°53'0 0.0
2017-Nov-24 00:30N 37°57' W 008°53'0 0.0
2017-Nov-24 00:00N 37°57' W 008°53'0 0.0
2017-Nov-23 23:30N 37°57' W 008°53'0 0.1
2017-Nov-23 23:01N 37°57' W 008°53'1 2.5
2017-Nov-23 22:31N 37°56' W 008°54'1 1.9
2017-Nov-23 22:01N 37°55' W 008°55'1 2.2
2017-Nov-23 21:31N 37°55' W 008°54'1 1.9
2017-Nov-23 21:01N 37°55' W 008°54'1 2.8
2017-Nov-23 20:30N 37°56' W 008°56'510.6
2017-Nov-23 20:01N 38°01' W 008°60'611.0
2017-Nov-23 19:31N 38°05' W 009°03'510.5
2017-Nov-23 19:01N 38°10' W 009°07'510.4
2017-Nov-23 18:30N 38°14' W 009°10'510.2
2017-Nov-23 18:01N 38°18' W 009°14'5 9.7
2017-Nov-23 17:31N 38°22' W 009°17'5 9.3
2017-Nov-23 17:00N 38°27' W 009°19'5 9.3
2017-Nov-23 16:30N 38°31' W 009°21'5 9.5
2017-Nov-23 16:00N 38°36' W 009°23'4 8.8
2017-Nov-23 15:31N 38°39' W 009°20'4 8.5
2017-Nov-23 15:00N 38°41' W 009°15'2 0.5
2017-Nov-23 11:09N 38°41' W 009°13'0 0.0
2017-Nov-23 10:48N 38°41' W 009°13'0 0.0
2017-Nov-23 10:30N 38°41' W 009°13'0 0.0
2017-Nov-23 09:48N 38°41' W 009°13'0 0.0
2017-Nov-23 08:30N 38°41' W 009°13'0 0.0
2017-Nov-23 06:54N 38°41' W 009°13'0 0.0
2017-Nov-23 06:24N 38°41' W 009°13'0 0.0
2017-Nov-23 05:57N 38°41' W 009°13'0 0.1
2017-Nov-23 05:30N 38°41' W 009°13'1 1.7
2017-Nov-23 05:00N 38°41' W 009°14'5 9.6
2017-Nov-23 04:30N 38°39' W 009°19'5 9.7
2017-Nov-23 04:01N 38°35' W 009°22'510.6
2017-Nov-23 03:31N 38°30' W 009°20'3 6.7
2017-Nov-23 03:00N 38°27' W 009°19'4 8.7
2017-Nov-23 02:31N 38°31' W 009°21'510.6
2017-Nov-23 02:01N 38°26' W 009°18'510.4
2017-Nov-23 01:30N 38°21' W 009°16'510.5
2017-Nov-23 01:01N 38°17' W 009°11'510.4
2017-Nov-23 00:30N 38°13' W 009°08'510.6
2017-Nov-23 00:00N 38°08' W 009°04'510.7
2017-Nov-22 23:30N 38°04' W 009°00'510.9
2017-Nov-22 23:00N 37°59' W 008°57'4 8.6
2017-Nov-22 22:30N 37°56' W 008°53'1 1.9
2017-Nov-22 21:58N 37°57' W 008°53'0 0.0
2017-Nov-22 21:28N 37°57' W 008°53'0 0.0
2017-Nov-22 20:58N 37°57' W 008°53'0 0.0
2017-Nov-22 20:28N 37°57' W 008°53'0 0.0
2017-Nov-22 19:52N 37°57' W 008°53'0 0.0
2017-Nov-22 19:19N 37°57' W 008°53'  
2017-Nov-20 00:30N 37°56' W 008°51'0 0.1
2017-Nov-20 00:00N 37°56' W 008°51'1 1.5
2017-Nov-19 23:30N 37°55' W 008°52'2 4.1
2017-Nov-19 22:59N 37°57' W 008°53'0 0.0
2017-Nov-19 22:29N 37°57' W 008°53'0 0.0
2017-Nov-19 21:59N 37°57' W 008°53'0 0.0
2017-Nov-19 21:29N 37°57' W 008°53'0 0.0
2017-Nov-19 20:59N 37°57' W 008°53'0 0.0
2017-Nov-19 20:29N 37°57' W 008°53'0 0.0
2017-Nov-19 19:59N 37°57' W 008°53'0 0.0
2017-Nov-19 19:29N 37°57' W 008°53'0 0.0
2017-Nov-19 18:59N 37°57' W 008°53'0 0.0
2017-Nov-19 18:29N 37°57' W 008°53'0 0.0
2017-Nov-19 17:59N 37°57' W 008°53'0 0.0
2017-Nov-19 17:29N 37°57' W 008°53'0 0.0
2017-Nov-19 16:59N 37°57' W 008°53'0 0.0
2017-Nov-19 16:29N 37°57' W 008°53'0 0.0
2017-Nov-19 15:59N 37°57' W 008°53'0 0.0
2017-Nov-19 15:29N 37°57' W 008°53'0 0.0
2017-Nov-19 14:59N 37°57' W 008°53'0 0.0
2017-Nov-19 14:29N 37°57' W 008°53'0 0.0
2017-Nov-19 13:59N 37°57' W 008°53'0 0.9
2017-Nov-19 13:30N 37°57' W 008°53'2 3.6
2017-Nov-19 12:59N 37°55' W 008°52'0 0.0
2017-Nov-19 12:29N 37°55' W 008°52'0 0.1
2017-Nov-19 11:59N 37°55' W 008°52'0 0.1
2017-Nov-19 11:29N 37°55' W 008°52'0 0.0
2017-Nov-19 10:59N 37°55' W 008°52'0 0.0
2017-Nov-19 10:29N 37°55' W 008°52'0 0.1
2017-Nov-19 09:59N 37°55' W 008°52'0 0.0
2017-Nov-19 09:29N 37°55' W 008°52'0 0.0
2017-Nov-19 08:59N 37°55' W 008°52'0 0.0
2017-Nov-19 08:29N 37°55' W 008°52'0 0.0
2017-Nov-19 07:58N 37°55' W 008°52'0 0.0
2017-Nov-19 07:28N 37°55' W 008°52'0 0.0
2017-Nov-19 06:55N 37°55' W 008°52'0 0.0
2017-Nov-19 06:28N 37°55' W 008°52'0 0.0
2017-Nov-19 05:58N 37°55' W 008°52'0 0.0
2017-Nov-19 05:28N 37°55' W 008°52'0 0.1
2017-Nov-19 04:58N 37°55' W 008°52'0 0.0
2017-Nov-19 04:28N 37°55' W 008°52'0 0.0
2017-Nov-19 03:58N 37°55' W 008°52'0 0.0
2017-Nov-19 03:28N 37°55' W 008°52'0 0.0
2017-Nov-19 02:58N 37°55' W 008°52'0 0.0
2017-Nov-19 02:28N 37°55' W 008°52'0 0.1
2017-Nov-19 01:58N 37°55' W 008°52'0 0.0
2017-Nov-19 01:22N 37°55' W 008°52'0 0.0
2017-Nov-19 00:58N 37°55' W 008°52'0 0.0
2017-Nov-19 00:28N 37°55' W 008°52'0 0.0
2017-Nov-18 23:58N 37°55' W 008°52'0 0.0
2017-Nov-18 23:28N 37°55' W 008°52'0 0.0
2017-Nov-18 22:58N 37°55' W 008°52'0 0.0
2017-Nov-18 22:28N 37°55' W 008°52'0 0.0
2017-Nov-18 21:58N 37°55' W 008°52'0 0.0
2017-Nov-18 21:28N 37°55' W 008°52'0 0.1
2017-Nov-18 20:58N 37°55' W 008°52'0 0.1
2017-Nov-18 20:28N 37°55' W 008°52'0 0.0
2017-Nov-18 19:55N 37°55' W 008°52'0 0.0
2017-Nov-18 19:28N 37°55' W 008°52'0 0.0
2017-Nov-18 18:58N 37°55' W 008°52'0 0.0
2017-Nov-18 18:28N 37°55' W 008°52'0 0.1
2017-Nov-18 17:58N 37°55' W 008°52'0 0.0
2017-Nov-18 17:28N 37°55' W 008°52'0 0.0
2017-Nov-18 16:58N 37°55' W 008°52'0 0.0
2017-Nov-18 16:28N 37°55' W 008°52'1 3.0
2017-Nov-18 16:00N 37°56' W 008°51'0 0.0
2017-Nov-18 15:30N 37°56' W 008°51'0 0.0
2017-Nov-18 15:00N 37°56' W 008°51'0 0.0
2017-Nov-18 14:30N 37°56' W 008°51'0 0.0
2017-Nov-18 14:00N 37°56' W 008°51'0 0.0
2017-Nov-18 13:30N 37°56' W 008°51'0 0.0
2017-Nov-18 13:00N 37°56' W 008°51'0 0.0
2017-Nov-18 12:30N 37°56' W 008°51'0 0.0
2017-Nov-18 12:00N 37°56' W 008°51'0 0.0
2017-Nov-18 11:30N 37°56' W 008°51'0 0.0
2017-Nov-18 11:00N 37°56' W 008°51'0 0.0
2017-Nov-18 10:30N 37°56' W 008°51'0 0.0
2017-Nov-18 10:00N 37°56' W 008°51'0 0.0
2017-Nov-18 09:24N 37°56' W 008°51'0 0.0
2017-Nov-18 09:00N 37°56' W 008°51'0 0.0
2017-Nov-18 08:30N 37°56' W 008°51'0 0.0
2017-Nov-18 08:00N 37°56' W 008°51'0 0.0
2017-Nov-18 07:30N 37°56' W 008°51'0 0.0
2017-Nov-18 07:00N 37°56' W 008°51'0 0.0
2017-Nov-18 06:30N 37°56' W 008°51'0 0.0
2017-Nov-18 06:00N 37°56' W 008°51'0 0.0
2017-Nov-18 05:30N 37°56' W 008°51'0 0.0
2017-Nov-18 05:00N 37°56' W 008°51'0 0.0
2017-Nov-18 04:30N 37°56' W 008°51'0 0.0
2017-Nov-18 04:00N 37°56' W 008°51'0 0.0
2017-Nov-18 03:30N 37°56' W 008°51'0 0.0
2017-Nov-18 03:00N 37°56' W 008°51'0 0.0
2017-Nov-18 02:30N 37°56' W 008°51'0 0.0
2017-Nov-18 02:00N 37°56' W 008°51'0 0.0
2017-Nov-18 01:30N 37°56' W 008°51'0 0.0
2017-Nov-18 01:00N 37°56' W 008°51'0 0.0
2017-Nov-18 00:30N 37°56' W 008°51'0 0.0
2017-Nov-18 00:00N 37°56' W 008°51'0 0.0
2017-Nov-17 23:30N 37°56' W 008°51'0 0.0
2017-Nov-17 23:00N 37°56' W 008°51'0 0.0
2017-Nov-17 22:30N 37°56' W 008°51'0 0.0
2017-Nov-17 22:00N 37°56' W 008°51'0 0.0
2017-Nov-17 21:30N 37°56' W 008°51'0 0.0
2017-Nov-17 21:00N 37°56' W 008°51'0 0.0
2017-Nov-17 20:30N 37°56' W 008°51'0 0.0
2017-Nov-17 20:00N 37°56' W 008°51'0 0.0
2017-Nov-17 19:30N 37°56' W 008°51'0 0.0
2017-Nov-17 19:00N 37°56' W 008°51'0 0.0
2017-Nov-17 18:30N 37°56' W 008°51'0 0.0
2017-Nov-17 18:00N 37°56' W 008°51'0 0.0
2017-Nov-17 17:30N 37°56' W 008°51'0 0.0
2017-Nov-17 17:00N 37°56' W 008°51'0 0.0
2017-Nov-17 16:30N 37°56' W 008°51'0 0.0
2017-Nov-17 16:00N 37°56' W 008°51'0 0.0
2017-Nov-17 15:30N 37°56' W 008°51'0 0.0
2017-Nov-17 15:00N 37°56' W 008°51'0 0.0
2017-Nov-17 14:30N 37°56' W 008°51'0 0.0
2017-Nov-17 14:00N 37°56' W 008°51'0 0.0
2017-Nov-17 13:30N 37°56' W 008°51'0 0.0
2017-Nov-17 13:00N 37°56' W 008°51'0 0.0
2017-Nov-17 12:30N 37°56' W 008°51'0 0.0
2017-Nov-17 12:00N 37°56' W 008°51'0 0.0
2017-Nov-17 11:30N 37°56' W 008°51'0 0.0
2017-Nov-17 11:00N 37°56' W 008°51'0 0.0
2017-Nov-17 10:30N 37°56' W 008°51'0 0.0
2017-Nov-17 10:00N 37°56' W 008°51'0 0.0
2017-Nov-17 09:30N 37°56' W 008°51'0 0.0
2017-Nov-17 09:00N 37°56' W 008°51'0 0.0
2017-Nov-17 08:30N 37°56' W 008°51'0 0.0
2017-Nov-17 08:00N 37°56' W 008°51'0 0.0
2017-Nov-17 07:30N 37°56' W 008°51'0 0.0
2017-Nov-17 07:00N 37°56' W 008°51'0 0.0
2017-Nov-17 06:30N 37°56' W 008°51'0 0.0
2017-Nov-17 06:00N 37°56' W 008°51'0 0.0
2017-Nov-17 05:30N 37°56' W 008°51'0 0.0
2017-Nov-17 05:00N 37°56' W 008°51'0 0.0
2017-Nov-17 04:30N 37°56' W 008°51'0 0.0
2017-Nov-17 04:00N 37°56' W 008°51'0 0.0
2017-Nov-17 03:30N 37°56' W 008°51'0 0.0
2017-Nov-17 03:00N 37°56' W 008°51'0 0.0
2017-Nov-17 02:30N 37°56' W 008°51'0 0.0
2017-Nov-17 02:00N 37°56' W 008°51'0 0.0
2017-Nov-17 01:30N 37°56' W 008°51'0 0.0
2017-Nov-17 01:00N 37°56' W 008°51'0 0.0
2017-Nov-17 00:30N 37°56' W 008°51'0 0.0
2017-Nov-17 00:00N 37°56' W 008°51'0 0.0
2017-Nov-16 23:30N 37°56' W 008°51'0 0.0
2017-Nov-16 23:00N 37°56' W 008°51'0 0.0
2017-Nov-16 22:30N 37°56' W 008°51'0 0.0
2017-Nov-16 22:00N 37°56' W 008°51'0 0.0
2017-Nov-16 21:30N 37°56' W 008°51'0 0.0
2017-Nov-16 21:00N 37°56' W 008°51'0 0.0
2017-Nov-16 20:30N 37°56' W 008°51'0 0.0
2017-Nov-16 20:00N 37°56' W 008°51'0 0.0
2017-Nov-16 19:30N 37°56' W 008°51'0 0.0
2017-Nov-16 19:00N 37°56' W 008°51'0 0.0
2017-Nov-16 18:30N 37°56' W 008°51'0 0.0
2017-Nov-16 18:00N 37°56' W 008°51'0 0.0
2017-Nov-16 17:30N 37°56' W 008°51'0 0.0
2017-Nov-16 17:00N 37°56' W 008°51'1 2.4
2017-Nov-16 16:31N 37°55' W 008°52'0 0.4
2017-Nov-16 15:55N 37°55' W 008°51'0 0.0
2017-Nov-16 15:28N 37°55' W 008°51'0 0.0
2017-Nov-16 14:55N 37°55' W 008°51'0 0.0
2017-Nov-16 14:25N 37°55' W 008°51'0 0.0
2017-Nov-16 13:58N 37°55' W 008°51'0 0.0
2017-Nov-16 13:28N 37°55' W 008°51'0 0.0
2017-Nov-16 12:58N 37°55' W 008°51'0 0.0
2017-Nov-16 12:28N 37°55' W 008°51'0 0.0
2017-Nov-16 11:55N 37°55' W 008°51'0 0.0
2017-Nov-16 11:28N 37°55' W 008°51'0 0.1
2017-Nov-16 10:58N 37°55' W 008°51'0 0.1
2017-Nov-16 10:31N 37°55' W 008°51'0 0.0
2017-Nov-16 09:58N 37°55' W 008°51'0 0.0
2017-Nov-16 09:28N 37°55' W 008°51'0 0.0
2017-Nov-16 08:58N 37°55' W 008°51'0 0.0
2017-Nov-16 08:28N 37°55' W 008°52'0 0.0
2017-Nov-16 07:58N 37°55' W 008°51'0 0.0
2017-Nov-16 07:28N 37°55' W 008°51'0 0.0
2017-Nov-16 06:58N 37°55' W 008°51'0 0.0
2017-Nov-16 06:28N 37°55' W 008°51'0 0.0
2017-Nov-16 05:58N 37°55' W 008°51'0 0.0
2017-Nov-16 05:28N 37°55' W 008°51'0 0.0
2017-Nov-16 04:58N 37°55' W 008°51'0 0.0
2017-Nov-16 04:25N 37°55' W 008°51'0 0.0
2017-Nov-16 03:55N 37°55' W 008°51'0 0.0
2017-Nov-16 03:28N 37°55' W 008°51'0 0.0
2017-Nov-16 02:58N 37°55' W 008°51'0 0.0
2017-Nov-16 02:28N 37°55' W 008°51'0 0.1
2017-Nov-16 01:58N 37°55' W 008°51'0 0.0
2017-Nov-16 01:28N 37°55' W 008°51'0 0.0
2017-Nov-16 00:58N 37°55' W 008°51'2 3.4
2017-Nov-16 00:31N 37°56' W 008°52'1 1.4
2017-Nov-16 00:00N 37°56' W 008°51'0 0.0
2017-Nov-15 23:30N 37°56' W 008°51'0 0.0
2017-Nov-15 23:00N 37°56' W 008°51'0 0.0
2017-Nov-15 22:30N 37°56' W 008°51'0 0.0
2017-Nov-15 22:00N 37°56' W 008°51'0 0.0
2017-Nov-15 21:30N 37°56' W 008°51'0 0.0
2017-Nov-15 21:00N 37°56' W 008°51'0 0.0
2017-Nov-15 20:30N 37°56' W 008°51'0 0.0
2017-Nov-15 20:00N 37°56' W 008°51'0 0.0
2017-Nov-15 19:30N 37°56' W 008°51'0 0.9
2017-Nov-15 19:00N 37°56' W 008°52'1 2.6
2017-Nov-15 18:28N 37°55' W 008°51'0 0.1
2017-Nov-15 17:58N 37°55' W 008°51'0 0.0
2017-Nov-15 17:28N 37°55' W 008°51'0 0.0
2017-Nov-15 16:58N 37°55' W 008°51'0 0.1
2017-Nov-15 16:28N 37°55' W 008°51'1 1.7
2017-Nov-15 16:00N 37°56' W 008°52'2 3.2
2017-Nov-15 15:28N 37°57' W 008°53'0 0.0
2017-Nov-15 14:58N 37°57' W 008°53'0 0.0
2017-Nov-15 14:28N 37°57' W 008°53'0 0.0
2017-Nov-15 13:58N 37°57' W 008°53'0 0.0
2017-Nov-15 13:28N 37°57' W 008°53'0 0.0
2017-Nov-15 12:58N 37°57' W 008°53'0 0.0
2017-Nov-15 12:28N 37°57' W 008°53'0 0.0
2017-Nov-15 11:58N 37°57' W 008°53'0 0.0
2017-Nov-15 11:28N 37°57' W 008°53'0 0.0
2017-Nov-15 10:58N 37°57' W 008°53'0 0.0
2017-Nov-15 10:28N 37°57' W 008°53'0 0.0
2017-Nov-15 09:58N 37°57' W 008°53'0 0.0
2017-Nov-15 09:28N 37°57' W 008°53'0 0.0
2017-Nov-15 08:58N 37°57' W 008°53'0 0.1
2017-Nov-15 08:31N 37°57' W 008°53'1 2.9
2017-Nov-15 08:00N 37°56' W 008°52'0 0.0
2017-Nov-15 07:30N 37°56' W 008°52'0 0.0
2017-Nov-15 07:00N 37°56' W 008°52'0 0.0
2017-Nov-15 06:30N 37°56' W 008°52'0 0.0
2017-Nov-15 06:00N 37°56' W 008°52'0 0.0
2017-Nov-15 05:30N 37°56' W 008°52'0 0.0
2017-Nov-15 05:00N 37°56' W 008°52'0 0.0
2017-Nov-15 04:30N 37°56' W 008°52'0 0.0
2017-Nov-15 03:57N 37°56' W 008°52'0 0.0
2017-Nov-15 03:30N 37°56' W 008°52'0 0.0
2017-Nov-15 03:00N 37°56' W 008°52'0 0.0
2017-Nov-15 02:30N 37°56' W 008°52'0 0.0
2017-Nov-15 02:00N 37°56' W 008°52'0 0.0
2017-Nov-15 01:30N 37°56' W 008°52'0 0.0
2017-Nov-15 01:00N 37°56' W 008°52'0 0.0
2017-Nov-15 00:30N 37°56' W 008°52'0 0.0
2017-Nov-15 00:00N 37°56' W 008°52'0 0.0
2017-Nov-14 23:30N 37°56' W 008°52'0 0.0
2017-Nov-14 23:00N 37°56' W 008°52'0 0.0
2017-Nov-14 22:30N 37°56' W 008°52'0 0.0
2017-Nov-14 22:00N 37°56' W 008°52'0 0.0
2017-Nov-14 21:30N 37°56' W 008°52'0 0.0
2017-Nov-14 21:00N 37°56' W 008°52'0 0.0
2017-Nov-14 20:30N 37°56' W 008°52'0 0.0
2017-Nov-14 20:00N 37°56' W 008°52'0 0.0
2017-Nov-14 19:30N 37°56' W 008°52'0 0.0
2017-Nov-14 19:00N 37°56' W 008°52'0 0.0
2017-Nov-14 18:30N 37°56' W 008°52'0 0.0
2017-Nov-14 18:00N 37°56' W 008°52'0 0.0
2017-Nov-14 17:30N 37°56' W 008°52'0 0.0
2017-Nov-14 17:00N 37°56' W 008°52'0 0.0
2017-Nov-14 16:30N 37°56' W 008°52'0 0.0
2017-Nov-14 16:00N 37°56' W 008°52'0 0.0
2017-Nov-14 15:30N 37°56' W 008°52'0 0.0
2017-Nov-14 15:00N 37°56' W 008°52'0 0.0
2017-Nov-14 14:30N 37°56' W 008°52'0 0.0
2017-Nov-14 14:00N 37°56' W 008°52'0 0.0
2017-Nov-14 13:30N 37°56' W 008°52'0 0.5
2017-Nov-14 13:00N 37°56' W 008°52'1 2.2
2017-Nov-14 12:30N 37°56' W 008°51'0 0.0
2017-Nov-14 11:58N 37°56' W 008°51'0 0.0
2017-Nov-14 11:28N 37°56' W 008°51'0 0.0
2017-Nov-14 10:58N 37°56' W 008°51'0 0.0
2017-Nov-14 10:28N 37°56' W 008°51'0 0.0
2017-Nov-14 09:58N 37°56' W 008°51'0 0.0
2017-Nov-14 09:28N 37°56' W 008°51'0 0.0
2017-Nov-14 08:58N 37°56' W 008°51'0 0.0
2017-Nov-14 08:28N 37°56' W 008°51'0 0.0
2017-Nov-14 07:58N 37°56' W 008°51'  

Dump ship's entire track history